createdAt,value
2018-02-10T00:00:03.028Z,97865.09
2018-02-10T00:02:30.562Z,97868.41
2018-02-10T00:04:58.101Z,97866.61
2018-02-10T00:07:25.677Z,97869.67
2018-02-10T00:09:53.236Z,97865.14
2018-02-10T00:12:20.801Z,97869.43
2018-02-10T00:14:48.326Z,97865.97
2018-02-10T00:17:15.846Z,97869.42
2018-02-10T00:19:43.371Z,97874.95
2018-02-10T00:22:11.008Z,97872.66
2018-02-10T00:24:38.527Z,97875.33
2018-02-10T00:27:06.086Z,97878.90
2018-02-10T00:29:33.616Z,97881.25
2018-02-10T00:32:01.152Z,97886.28
2018-02-10T00:34:28.691Z,97886.48
2018-02-10T00:36:56.217Z,97895.22
2018-02-10T00:39:23.756Z,97883.76
2018-02-10T00:41:51.305Z,97891.22
2018-02-10T00:44:18.856Z,97896.05
2018-02-10T00:46:46.358Z,97894.96
2018-02-10T00:49:13.886Z,97896.79
2018-02-10T00:51:41.404Z,97891.70
2018-02-10T00:54:09.021Z,97894.92
2018-02-10T00:56:36.561Z,97897.44
2018-02-10T00:59:04.091Z,97890.20
2018-02-10T01:01:31.642Z,97896.77
2018-02-10T01:03:59.165Z,97897.58
2018-02-10T01:06:26.691Z,97901.94
2018-02-10T01:08:54.221Z,97902.70
2018-02-10T01:11:21.757Z,97906.84
2018-02-10T01:13:49.297Z,97903.00
2018-02-10T01:16:16.840Z,97902.19
2018-02-10T01:18:44.366Z,97904.99
2018-02-10T01:21:11.882Z,97903.71
2018-02-10T01:23:39.407Z,97896.45
2018-02-10T01:26:06.961Z,97904.02
2018-02-10T01:28:34.513Z,97904.89
2018-02-10T01:31:02.057Z,97906.73
2018-02-10T01:33:29.603Z,97903.73
2018-02-10T01:35:57.137Z,97910.22
2018-02-10T01:38:24.691Z,97900.28
2018-02-10T01:40:52.211Z,97904.95
2018-02-10T01:43:19.947Z,97905.46
2018-02-10T01:45:47.492Z,97907.29
2018-02-10T01:48:15.043Z,97898.75
2018-02-10T01:50:42.588Z,97906.02
2018-02-10T01:53:10.096Z,97906.48
2018-02-10T01:55:37.623Z,97910.02
2018-02-10T01:58:05.184Z,97908.28
2018-02-10T02:00:32.728Z,97909.45
2018-02-10T02:03:00.263Z,97909.09
2018-02-10T02:05:27.788Z,97910.38
2018-02-10T02:07:55.326Z,97908.02
2018-02-10T02:10:22.946Z,97908.73
2018-02-10T02:12:50.467Z,97904.59
2018-02-10T02:15:17.991Z,97908.48
2018-02-10T02:17:45.577Z,97911.64
2018-02-10T02:20:13.166Z,97920.05
2018-02-10T02:22:40.759Z,97918.88
2018-02-10T02:25:08.257Z,97915.03
2018-02-10T02:27:35.771Z,97912.78
2018-02-10T02:30:03.308Z,97917.28
2018-02-10T02:32:30.831Z,97919.89
2018-02-10T02:34:58.443Z,97916.97
2018-02-10T02:37:25.962Z,97913.63
2018-02-10T02:39:53.486Z,97924.09
2018-02-10T02:42:21.073Z,97924.17
2018-02-10T02:44:48.591Z,97922.61
2018-02-10T02:47:16.146Z,97920.14
2018-02-10T02:49:43.671Z,97923.38
2018-02-10T02:52:11.243Z,97922.34
2018-02-10T02:54:38.772Z,97927.73
2018-02-10T02:57:06.310Z,97926.24
2018-02-10T02:59:33.846Z,97929.75
2018-02-10T03:02:01.385Z,97934.77
2018-02-10T03:04:28.898Z,97924.81
2018-02-10T03:06:56.403Z,97931.77
2018-02-10T03:09:23.953Z,97935.29
2018-02-10T03:11:51.481Z,97934.53
2018-02-10T03:14:19.022Z,97934.94
2018-02-10T03:16:46.526Z,97928.70
2018-02-10T03:19:14.105Z,97932.53
2018-02-10T03:21:41.760Z,97930.48
2018-02-10T03:24:09.277Z,97933.97
2018-02-10T03:26:36.805Z,97932.03
2018-02-10T03:29:04.310Z,97931.86
2018-02-10T03:31:31.816Z,97924.39
2018-02-10T03:33:59.320Z,97928.86
2018-02-10T03:36:26.843Z,97930.38
2018-02-10T03:38:54.376Z,97938.27
2018-02-10T03:41:21.905Z,97940.31
2018-02-10T03:43:49.632Z,97943.48
2018-02-10T03:46:17.158Z,97951.31
2018-02-10T03:48:44.677Z,97942.16
2018-02-10T03:51:12.191Z,97940.56
2018-02-10T03:53:39.707Z,97946.00
2018-02-10T03:56:07.265Z,97941.47
2018-02-10T03:58:34.785Z,97945.38
2018-02-10T04:01:02.332Z,97948.09
2018-02-10T04:03:29.852Z,97946.66
2018-02-10T04:05:57.518Z,97947.27
2018-02-10T04:08:25.032Z,97954.88
2018-02-10T04:10:52.567Z,97946.74
2018-02-10T04:13:20.111Z,97946.25
2018-02-10T04:15:47.630Z,97950.91
2018-02-10T04:18:15.196Z,97950.70
2018-02-10T04:20:42.732Z,97953.58
2018-02-10T04:23:10.257Z,97950.25
2018-02-10T04:25:37.807Z,97952.20
2018-02-10T04:28:05.381Z,97953.30
2018-02-10T04:30:32.900Z,97954.34
2018-02-10T04:33:00.409Z,97957.16
2018-02-10T04:35:27.956Z,97957.37
2018-02-10T04:37:55.531Z,97954.12
2018-02-10T04:40:23.066Z,97950.51
2018-02-10T04:42:50.590Z,97954.94
2018-02-10T04:45:18.113Z,97954.41
2018-02-10T04:47:45.620Z,97961.38
2018-02-10T04:50:13.183Z,97959.61
2018-02-10T04:52:40.713Z,97964.36
2018-02-10T04:55:08.226Z,97966.42
2018-02-10T04:57:35.745Z,97969.33
2018-02-10T05:00:03.274Z,97970.84
2018-02-10T05:02:30.803Z,97979.51
2018-02-10T05:04:58.322Z,97982.16
2018-02-10T05:07:25.855Z,97985.11
2018-02-10T05:09:53.387Z,97990.59
2018-02-10T05:12:20.938Z,97992.98
2018-02-10T05:14:48.453Z,97993.27
2018-02-10T05:17:16.444Z,97994.07
2018-02-10T05:19:44.082Z,98001.94
2018-02-10T05:22:11.596Z,98010.63
2018-02-10T05:24:39.108Z,98009.90
2018-02-10T05:27:06.638Z,98007.48
2018-02-10T05:29:34.153Z,98009.70
2018-02-10T05:32:01.673Z,98006.55
2018-02-10T05:34:29.228Z,98000.41
2018-02-10T05:36:56.767Z,98000.46
2018-02-10T05:39:24.867Z,98007.73
2018-02-10T05:41:52.372Z,98003.77
2018-02-10T05:44:19.912Z,97997.33
2018-02-10T05:46:47.440Z,97999.23
2018-02-10T05:49:14.998Z,97992.52
2018-02-10T05:51:42.543Z,97994.47
2018-02-10T05:54:10.061Z,97992.23
2018-02-10T05:56:37.612Z,97990.01
2018-02-10T05:59:05.136Z,97987.91
2018-02-10T06:01:32.709Z,97994.50
2018-02-10T06:04:00.232Z,97992.19
2018-02-10T06:06:27.779Z,97998.14
2018-02-10T06:08:55.326Z,98004.23
2018-02-10T06:11:22.943Z,98005.72
2018-02-10T06:13:50.486Z,98016.79
2018-02-10T06:16:18.013Z,98017.38
2018-02-10T06:18:45.543Z,98014.74
2018-02-10T06:21:13.286Z,98013.17
2018-02-10T06:23:40.809Z,98013.47
2018-02-10T06:26:08.338Z,98018.09
2018-02-10T06:28:35.853Z,98019.46
2018-02-10T06:31:03.524Z,98019.66
2018-02-10T06:33:31.038Z,98019.66
2018-02-10T06:35:59.441Z,98029.03
2018-02-10T06:38:26.979Z,98035.28
2018-02-10T06:40:54.573Z,98037.42
2018-02-10T06:43:22.127Z,98038.12
2018-02-10T06:45:49.655Z,98038.39
2018-02-10T06:48:17.209Z,98042.72
2018-02-10T06:50:44.778Z,98045.84
2018-02-10T06:53:12.293Z,98046.42
2018-02-10T06:55:39.824Z,98046.17
2018-02-10T06:58:07.360Z,98052.13
2018-02-10T07:00:34.884Z,98062.84
2018-02-10T07:03:02.399Z,98062.37
2018-02-10T07:05:30.067Z,98060.52
2018-02-10T07:07:57.592Z,98073.53
2018-02-10T07:10:25.109Z,98071.69
2018-02-10T07:12:52.627Z,98077.98
2018-02-10T07:15:20.167Z,98075.81
2018-02-10T07:17:47.734Z,98071.53
2018-02-10T07:20:15.266Z,98070.53
2018-02-10T07:22:42.782Z,98074.27
2018-02-10T07:25:10.287Z,98080.55
2018-02-10T07:27:37.819Z,98077.84
2018-02-10T07:30:05.388Z,98080.02
2018-02-10T07:32:32.916Z,98082.08
2018-02-10T07:35:00.447Z,98085.86
2018-02-10T07:37:27.964Z,98087.80
2018-02-10T07:39:55.509Z,98091.02
2018-02-10T07:42:23.023Z,98086.98
2018-02-10T07:44:50.576Z,98085.24
2018-02-10T07:47:18.128Z,98081.55
2018-02-10T07:49:45.651Z,98088.16
2018-02-10T07:52:13.192Z,98088.36
2018-02-10T07:54:40.737Z,98096.25
2018-02-10T07:57:08.262Z,98097.41
2018-02-10T07:59:35.806Z,98096.72
2018-02-10T08:02:03.348Z,98098.56
2018-02-10T08:04:30.977Z,98104.28
2018-02-10T08:06:58.543Z,98096.92
2018-02-10T08:09:26.096Z,98102.84
2018-02-10T08:11:53.701Z,98107.51
2018-02-10T08:14:21.232Z,98105.03
2018-02-10T08:16:48.782Z,98114.11
2018-02-10T08:19:16.294Z,98108.20
2018-02-10T08:21:43.848Z,98109.80
2018-02-10T08:24:11.408Z,98115.25
2018-02-10T08:26:38.934Z,98119.91
2018-02-10T08:29:06.476Z,98115.42
2018-02-10T08:31:34.038Z,98119.47
2018-02-10T08:34:01.557Z,98128.34
2018-02-10T08:36:29.096Z,98126.39
2018-02-10T08:38:56.684Z,98133.67
2018-02-10T08:41:24.212Z,98129.92
2018-02-10T08:43:51.968Z,98136.02
2018-02-10T08:46:19.501Z,98135.50
2018-02-10T08:48:47.046Z,98132.76
2018-02-10T08:51:14.586Z,98131.63
2018-02-10T08:53:42.109Z,98133.55
2018-02-10T08:56:09.678Z,98134.12
2018-02-10T08:58:37.245Z,98133.24
2018-02-10T09:01:04.764Z,98138.30
2018-02-10T09:03:32.295Z,98141.46
2018-02-10T09:05:59.826Z,98146.61
2018-02-10T09:08:27.420Z,98144.17
2018-02-10T09:10:54.942Z,98144.30
2018-02-10T09:13:22.475Z,98138.77
2018-02-10T09:15:50.608Z,98140.66
2018-02-10T09:18:18.157Z,98137.55
2018-02-10T09:20:45.702Z,98138.53
2018-02-10T09:23:13.206Z,98139.47
2018-02-10T09:25:40.757Z,98148.59
2018-02-10T09:28:08.326Z,98141.81
2018-02-10T09:30:35.977Z,98140.19
2018-02-10T09:33:03.500Z,98135.45
2018-02-10T09:35:31.044Z,98140.50
2018-02-10T09:37:58.601Z,98137.52
2018-02-10T09:40:26.163Z,98140.09
2018-02-10T09:42:53.723Z,98142.13
2018-02-10T09:45:21.393Z,98145.07
2018-02-10T09:47:48.927Z,98137.17
2018-02-10T09:50:16.473Z,98138.48
2018-02-10T09:52:44.006Z,98136.95
2018-02-10T09:55:11.543Z,98133.80
2018-02-10T09:57:39.073Z,98135.84
2018-02-10T10:00:06.614Z,98135.61
2018-02-10T10:02:34.379Z,98133.13
2018-02-10T10:05:01.897Z,98131.10
2018-02-10T10:07:29.501Z,98131.52
2018-02-10T10:09:57.022Z,98135.19
2018-02-10T10:12:24.568Z,98126.99
2018-02-10T10:14:52.123Z,98130.50
2018-02-10T10:17:19.681Z,98129.55
2018-02-10T10:19:47.263Z,98132.92
2018-02-10T10:22:14.823Z,98129.36
2018-02-10T10:24:42.472Z,98127.25
2018-02-10T10:27:10.004Z,98130.30
2018-02-10T10:29:37.613Z,98133.38
2018-02-10T10:32:05.143Z,98133.61
2018-02-10T10:34:32.694Z,98126.84
2018-02-10T10:37:00.241Z,98127.50
2018-02-10T10:39:27.834Z,98126.43
2018-02-10T10:41:55.388Z,98126.67
2018-02-10T10:44:22.932Z,98124.09
2018-02-10T10:46:50.563Z,98120.30
2018-02-10T10:49:18.114Z,98119.29
2018-02-10T10:51:45.640Z,98115.42
2018-02-10T10:54:13.213Z,98107.94
2018-02-10T10:56:40.772Z,98109.72
2018-02-10T10:59:08.593Z,98106.06
2018-02-10T11:01:36.142Z,98108.12
2018-02-10T11:04:03.676Z,98103.80
2018-02-10T11:06:31.278Z,98100.13
2018-02-10T11:08:58.889Z,98106.98
2018-02-10T11:11:26.417Z,98106.22
2018-02-10T11:13:53.968Z,98100.31
2018-02-10T11:16:21.499Z,98101.33
2018-02-10T11:18:49.039Z,98101.13
2018-02-10T11:21:16.578Z,98098.45
2018-02-10T11:23:44.257Z,98098.00
2018-02-10T11:26:11.813Z,98101.94
2018-02-10T11:28:39.334Z,98101.17
2018-02-10T11:31:06.872Z,98098.34
2018-02-10T11:33:34.430Z,98096.59
2018-02-10T11:36:01.994Z,98092.54
2018-02-10T11:38:29.539Z,98095.92
2018-02-10T11:40:57.089Z,98100.69
2018-02-10T11:43:24.652Z,98093.92
2018-02-10T11:45:52.203Z,98098.03
2018-02-10T11:48:19.723Z,98098.31
2018-02-10T11:50:47.326Z,98102.33
2018-02-10T11:53:15.094Z,98102.66
2018-02-10T11:55:42.740Z,98095.16
2018-02-10T11:58:10.294Z,98102.75
2018-02-10T12:00:37.818Z,98098.27
2018-02-10T12:03:05.347Z,98095.36
2018-02-10T12:05:32.944Z,98094.80
2018-02-10T12:08:00.484Z,98087.31
2018-02-10T12:10:28.019Z,98095.59
2018-02-10T12:12:55.642Z,98093.27
2018-02-10T12:15:23.189Z,98093.81
2018-02-10T12:17:50.727Z,98086.11
2018-02-10T12:20:18.379Z,98085.14
2018-02-10T12:22:45.912Z,98089.66
2018-02-10T12:25:13.464Z,98091.50
2018-02-10T12:27:41.002Z,98088.34
2018-02-10T12:30:08.512Z,98085.19
2018-02-10T12:32:36.065Z,98084.12
2018-02-10T12:35:03.596Z,98085.95
2018-02-10T12:37:31.122Z,98088.90
2018-02-10T12:39:58.676Z,98090.22
2018-02-10T12:42:26.593Z,98081.73
2018-02-10T12:44:54.634Z,98085.37
2018-02-10T12:47:22.384Z,98082.08
2018-02-10T12:49:50.281Z,98081.31
2018-02-10T12:52:18.004Z,98077.09
2018-02-10T12:54:46.195Z,98067.89
2018-02-10T12:57:13.712Z,98069.74
2018-02-10T12:59:41.242Z,98078.27
2018-02-10T13:02:09.783Z,98072.89
2018-02-10T13:04:37.328Z,98073.77
2018-02-10T13:07:04.895Z,98066.72
2018-02-10T13:09:32.542Z,98068.62
2018-02-10T13:12:00.274Z,98070.23
2018-02-10T13:14:28.231Z,98068.80
2018-02-10T13:16:55.797Z,98070.52
2018-02-10T13:19:23.528Z,98068.39
2018-02-10T13:21:51.282Z,98066.69
2018-02-10T13:24:19.297Z,98072.86
2018-02-10T13:26:47.056Z,98069.00
2018-02-10T13:29:14.765Z,98061.74
2018-02-10T13:31:42.322Z,98069.09
2018-02-10T13:34:10.129Z,98065.81
2018-02-10T13:36:37.681Z,98067.59
2018-02-10T13:39:05.249Z,98069.52
2018-02-10T13:41:33.902Z,98059.55
2018-02-10T13:44:01.439Z,98063.41
2018-02-10T13:46:28.969Z,98066.27
2018-02-10T13:48:56.487Z,98065.30
2018-02-10T13:51:24.027Z,98065.30
2018-02-10T13:53:51.579Z,98064.03
2018-02-10T13:56:19.218Z,98066.11
2018-02-10T13:58:46.728Z,98068.78
2018-02-10T14:01:14.303Z,98072.00
2018-02-10T14:03:41.848Z,98071.77
2018-02-10T14:06:09.365Z,98070.16
2018-02-10T14:08:37.027Z,98068.03
2018-02-10T14:11:04.568Z,98071.14
2018-02-10T14:13:32.151Z,98059.56
2018-02-10T14:15:59.672Z,98062.23
2018-02-10T14:18:27.378Z,98071.38
2018-02-10T14:20:54.923Z,98067.82
2018-02-10T14:23:22.452Z,98064.79
2018-02-10T14:25:50.892Z,98061.46
2018-02-10T14:28:18.419Z,98062.58
2018-02-10T14:30:45.964Z,98059.77
2018-02-10T14:33:13.510Z,98061.90
2018-02-10T14:35:41.046Z,98058.67
2018-02-10T14:38:08.672Z,98059.17
2018-02-10T14:40:36.183Z,98053.88
2018-02-10T14:43:03.734Z,98057.84
2018-02-10T14:45:31.281Z,98059.89
2018-02-10T14:47:58.824Z,98064.05
2018-02-10T14:50:26.359Z,98064.33
2018-02-10T14:52:53.913Z,98065.50
2018-02-10T14:55:21.531Z,98056.81
2018-02-10T14:57:49.058Z,98055.52
2018-02-10T15:00:16.592Z,98059.63
2018-02-10T15:02:44.103Z,98056.62
2018-02-10T15:05:11.697Z,98061.64
2018-02-10T15:07:39.244Z,98053.78
2018-02-10T15:10:06.962Z,98058.20
2018-02-10T15:12:34.499Z,98051.75
2018-02-10T15:15:02.364Z,98057.62
2018-02-10T15:17:30.067Z,98055.91
2018-02-10T15:19:57.738Z,98050.44
2018-02-10T15:22:25.382Z,98060.09
2018-02-10T15:24:53.141Z,98057.91
2018-02-10T15:27:20.714Z,98057.58
2018-02-10T15:30:00.129Z,98051.39
2018-02-10T15:32:39.585Z,98060.59
2018-02-10T15:35:07.109Z,98051.16
2018-02-10T15:37:34.641Z,98054.69
2018-02-10T15:40:02.288Z,98059.45
2018-02-10T15:42:29.896Z,98063.36
2018-02-10T15:44:57.431Z,98060.82
2018-02-10T15:47:24.976Z,98058.05
2018-02-10T15:49:52.488Z,98055.23
2018-02-10T15:52:20.031Z,98047.42
2018-02-10T15:54:47.621Z,98042.66
2018-02-10T15:57:15.238Z,98048.20
2018-02-10T15:59:42.835Z,98048.27
2018-02-10T16:02:10.720Z,98047.94
2018-02-10T16:04:38.259Z,98057.29
2018-02-10T16:07:05.952Z,98054.65
2018-02-10T16:09:33.538Z,98051.05
2018-02-10T16:12:01.248Z,98052.88
2018-02-10T16:14:29.220Z,98057.61
2018-02-10T16:16:57.117Z,98049.89
2018-02-10T16:19:24.893Z,98055.98
2018-02-10T16:21:52.615Z,98060.58
2018-02-10T16:24:20.632Z,98060.81
2018-02-10T16:26:48.619Z,98057.46
2018-02-10T16:29:16.453Z,98063.66
2018-02-10T16:31:44.328Z,98070.51
2018-02-10T16:34:12.258Z,98073.44
2018-02-10T16:36:40.143Z,98075.67
2018-02-10T16:39:08.216Z,98078.75
2018-02-10T16:41:35.930Z,98076.03
2018-02-10T16:44:03.675Z,98076.00
2018-02-10T16:46:31.387Z,98076.02
2018-02-10T16:48:59.247Z,98078.67
2018-02-10T16:51:26.799Z,98077.16
2018-02-10T16:53:54.450Z,98077.87
2018-02-10T16:56:22.042Z,98072.31
2018-02-10T16:58:49.584Z,98081.95
2018-02-10T17:01:17.123Z,98078.70
2018-02-10T17:03:44.752Z,98085.17
2018-02-10T17:06:12.287Z,98083.22
2018-02-10T17:08:39.811Z,98082.36
2018-02-10T17:11:07.457Z,98093.05
2018-02-10T17:13:35.243Z,98092.25
2018-02-10T17:16:03.178Z,98090.22
2018-02-10T17:18:30.883Z,98081.92
2018-02-10T17:20:58.510Z,98083.03
2018-02-10T17:23:26.563Z,98079.61
2018-02-10T17:25:54.113Z,98074.67
2018-02-10T17:28:21.654Z,98076.50
2018-02-10T17:30:49.797Z,98079.71
2018-02-10T17:33:17.347Z,98077.98
2018-02-10T17:35:44.892Z,98078.41
2018-02-10T17:38:12.458Z,98087.05
2018-02-10T17:40:40.049Z,98094.04
2018-02-10T17:43:07.701Z,98093.35
2018-02-10T17:45:35.459Z,98095.61
2018-02-10T17:48:02.977Z,98097.73
2018-02-10T17:50:30.528Z,98087.30
2018-02-10T17:52:58.067Z,98100.02
2018-02-10T17:55:25.641Z,98093.55
2018-02-10T17:57:53.188Z,98092.08
2018-02-10T18:00:20.984Z,98095.98
2018-02-10T18:02:48.529Z,98092.39
2018-02-10T18:05:16.073Z,98103.66
2018-02-10T18:07:43.690Z,98095.12
2018-02-10T18:10:11.323Z,98093.63
2018-02-10T18:12:38.903Z,98098.82
2018-02-10T18:15:06.479Z,98106.31
2018-02-10T18:17:34.004Z,98097.74
2018-02-10T18:20:01.556Z,98100.78
2018-02-10T18:22:29.124Z,98104.05
2018-02-10T18:24:56.660Z,98098.03
2018-02-10T18:27:24.614Z,98096.42
2018-02-10T18:29:52.214Z,98090.49
2018-02-10T18:32:19.880Z,98090.49
2018-02-10T18:34:47.435Z,98095.52
2018-02-10T18:37:15.028Z,98096.48
2018-02-10T18:39:42.609Z,98088.97
2018-02-10T18:42:10.921Z,98088.88
2018-02-10T18:44:38.476Z,98093.45
2018-02-10T18:47:06.071Z,98104.90
2018-02-10T18:49:33.598Z,98093.16
2018-02-10T18:52:01.139Z,98095.87
2018-02-10T18:54:28.747Z,98091.34
2018-02-10T18:56:56.334Z,98096.23
2018-02-10T18:59:24.205Z,98093.97
2018-02-10T19:01:51.726Z,98092.19
2018-02-10T19:04:19.363Z,98083.52
2018-02-10T19:06:47.024Z,98086.53
2018-02-10T19:09:14.600Z,98087.80
2018-02-10T19:11:42.138Z,98094.72
2018-02-10T19:14:09.714Z,98089.33
2018-02-10T19:16:37.244Z,98096.52
2018-02-10T19:19:05.277Z,98096.17
2018-02-10T19:21:32.810Z,98088.66
2018-02-10T19:24:00.355Z,98087.95
2018-02-10T19:26:27.914Z,98080.84
2018-02-10T19:28:55.622Z,98082.14
2018-02-10T19:31:23.155Z,98074.72
2018-02-10T19:33:50.678Z,98082.38
2018-02-10T19:36:18.218Z,98083.13
2018-02-10T19:38:45.782Z,98078.42
2018-02-10T19:41:13.304Z,98090.63
2018-02-10T19:43:40.848Z,98087.86
2018-02-10T19:46:08.420Z,98087.91
2018-02-10T19:48:35.954Z,98087.33
2018-02-10T19:51:03.506Z,98084.34
2018-02-10T19:53:31.040Z,98082.66
2018-02-10T19:55:58.588Z,98077.75
2018-02-10T19:58:26.122Z,98072.84
2018-02-10T20:00:53.752Z,98067.58
2018-02-10T20:03:21.294Z,98064.91
2018-02-10T20:05:49.061Z,98059.67
2018-02-10T20:08:16.614Z,98064.33
2018-02-10T20:10:44.163Z,98057.95
2018-02-10T20:13:11.731Z,98055.11
2018-02-10T20:15:39.277Z,98050.66
2018-02-10T20:18:06.840Z,98049.65
2018-02-10T20:20:34.403Z,98049.96
2018-02-10T20:23:01.932Z,98043.83
2018-02-10T20:25:29.462Z,98042.03
2018-02-10T20:27:57.097Z,98040.40
2018-02-10T20:30:24.662Z,98036.95
2018-02-10T20:32:52.206Z,98036.55
2018-02-10T20:35:20.041Z,98036.52
2018-02-10T20:37:47.587Z,98042.09
2018-02-10T20:40:15.221Z,98043.58
2018-02-10T20:42:42.752Z,98032.95
2018-02-10T20:45:10.273Z,98041.08
2018-02-10T20:47:37.797Z,98040.67
2018-02-10T20:50:05.361Z,98032.70
2018-02-10T20:52:32.996Z,98025.38
2018-02-10T20:55:00.545Z,98029.31
2018-02-10T20:57:28.148Z,98024.31
2018-02-10T20:59:55.705Z,98017.56
2018-02-10T21:02:23.262Z,98015.27
2018-02-10T21:04:50.793Z,98016.78
2018-02-10T21:07:18.315Z,98020.18
2018-02-10T21:09:45.881Z,98022.57
2018-02-10T21:12:13.581Z,98024.38
2018-02-10T21:14:41.140Z,98019.16
2018-02-10T21:17:08.679Z,98013.13
2018-02-10T21:19:36.229Z,98005.39
2018-02-10T21:22:03.768Z,98014.49
2018-02-10T21:24:31.297Z,98009.31
2018-02-10T21:26:59.083Z,98010.46
2018-02-10T21:29:26.669Z,98008.02
2018-02-10T21:31:54.207Z,98007.97
2018-02-10T21:34:21.756Z,98011.60
2018-02-10T21:36:49.268Z,98008.70
2018-02-10T21:39:16.792Z,98004.95
2018-02-10T21:41:44.333Z,98001.56
2018-02-10T21:44:11.874Z,98005.20
2018-02-10T21:46:39.407Z,97997.13
2018-02-10T21:49:06.959Z,97999.44
2018-02-10T21:51:34.502Z,97996.84
2018-02-10T21:54:02.033Z,97994.23
2018-02-10T21:56:29.622Z,97992.23
2018-02-10T21:58:57.136Z,97990.46
2018-02-10T22:01:24.657Z,97988.90
2018-02-10T22:03:52.165Z,97978.36
2018-02-10T22:06:19.686Z,97976.39
2018-02-10T22:08:47.206Z,97973.57
2018-02-10T22:11:14.724Z,97971.23
2018-02-10T22:13:42.255Z,97978.25
2018-02-10T22:16:09.839Z,97980.95
2018-02-10T22:18:37.373Z,97972.73
2018-02-10T22:21:04.903Z,97963.36
2018-02-10T22:23:32.431Z,97965.50
2018-02-10T22:25:59.959Z,97968.28
2018-02-10T22:28:27.493Z,97966.46
2018-02-10T22:30:55.024Z,97962.23
2018-02-10T22:33:22.568Z,97958.74
2018-02-10T22:35:50.181Z,97952.70
2018-02-10T22:38:17.715Z,97947.42
2018-02-10T22:40:45.247Z,97951.37
2018-02-10T22:43:12.792Z,97946.64
2018-02-10T22:45:40.363Z,97945.38
2018-02-10T22:48:07.900Z,97939.55
2018-02-10T22:50:35.437Z,97942.04
2018-02-10T22:53:02.952Z,97940.97
2018-02-10T22:55:30.605Z,97935.43
2018-02-10T22:57:58.126Z,97927.44
2018-02-10T23:00:25.659Z,97924.06
2018-02-10T23:02:53.384Z,97924.56
2018-02-10T23:05:20.924Z,97912.61
2018-02-10T23:07:48.469Z,97915.91
2018-02-10T23:10:16.066Z,97912.79
2018-02-10T23:12:43.583Z,97900.61
2018-02-10T23:15:11.141Z,97903.05
2018-02-10T23:17:38.682Z,97897.53
2018-02-10T23:20:06.239Z,97893.58
2018-02-10T23:22:33.779Z,97888.47
2018-02-10T23:25:01.317Z,97876.73
2018-02-10T23:27:28.863Z,97880.32
2018-02-10T23:29:56.387Z,97866.64
2018-02-10T23:32:23.929Z,97867.50
2018-02-10T23:34:51.486Z,97863.09
2018-02-10T23:37:19.029Z,97863.07
2018-02-10T23:39:46.548Z,97862.05
2018-02-10T23:42:14.085Z,97865.31
2018-02-10T23:44:41.604Z,97861.67
2018-02-10T23:47:09.148Z,97858.52
2018-02-10T23:49:36.684Z,97859.22
2018-02-10T23:52:04.223Z,97851.18
2018-02-10T23:54:31.740Z,97846.86
2018-02-10T23:56:59.252Z,97837.34
2018-02-10T23:59:26.793Z,97840.23
